Pagrindinis puslapis
METAR-TAF:

METAR-TAF

Oro uostai :

Antakija, Turkija

platuma: 36-21-46N, ilguma: 36-16-56E, Aukštis: 1950 m

Dabartinis oras

Ataskaita buvo paskelbta 33 minutes, ne 20:50 UTC
Vėjas 4 kt iš Rytų, svyruoja nuo Rytų/Šiaurės Rytų ir Pietryčių
Temperatūra 10°C
Drėgmė 100%
Slėgis 1022 hPa
Matomumas: 4000 m
Išsisklaidę debesys ne aukštis 2500 ft
rūkana

METAR: LTDA 152050Z 09004KT 060V140 4000 BR SCT025 10/10 Q1022 NOSIG

Laikas: 00:23 (21:23 UTC)

Prognozė

Ataskaita buvo paskelbta 1 valandą ir 43 minutes, ne 19:40 UTC
Prognozė galioja nuo 15 metu 21 UTC su 16 metu 06 UTC
Vėjas 2 kt nuo kintamojo kryptimis
Matomumas: 6000 m
Išsisklaidę debesys ne aukštis 2000 ft
Laikinai
nuo 15 metu 21 UTC su 15 metu 24 UTC
Matomumas: 4000 m
rūkana
Laikinai
nuo 16 metu 02 UTC su 16 metu 06 UTC
Matomumas: 1500 m
Rūkas lopais

TAF: LTDA 151940Z 1521/1606 VRB02KT 6000 SCT020 TEMPO 1521/1524 4000 BR TEMPO 1602/1606 1500 BCFG

Orai ataskaitas ir orų prognozės (METAR, TAF).

turimą stotys yra geltonos ir raudonos taškus žemėlapyje.

Perkelti pele per norėdami pamatyti stoties vardą.

Tada spustelėkite, norėdami matyti oro stebėjimo ir prognozės.

Norėdami pakeisti žemėlapį: spustelėkite ant žalios mygtukų su juodo kryžiaus žemyn,; žalią mygtuką su brūkšneliu, jei norite nutolinti; arba žalių rodyklių gretimoms žemėlapius.


METAR-TAF: